createdAt,value
2022-09-02T00:04:32.475Z,0.60
2022-09-02T00:09:37.910Z,0.50
2022-09-02T00:14:42.788Z,0.50
2022-09-02T00:24:50.994Z,0.50
2022-09-02T00:29:56.025Z,0.50
2022-09-02T00:35:02.386Z,0.60
2022-09-02T00:40:08.792Z,0.50
2022-09-02T00:45:14.814Z,0.52
2022-09-02T00:50:22.769Z,0.40
2022-09-02T00:55:28.930Z,0.50
2022-09-02T01:00:38.213Z,0.50
2022-09-02T01:05:46.290Z,0.50
2022-09-02T01:10:50.825Z,0.50
2022-09-02T01:15:59.327Z,0.50
2022-09-02T01:21:03.036Z,0.50
2022-09-02T01:26:08.446Z,0.60
2022-09-02T01:31:12.441Z,0.75
2022-09-02T01:36:15.959Z,0.50
2022-09-02T01:41:20.945Z,0.43
2022-09-02T01:46:25.038Z,0.57
2022-09-02T01:51:30.306Z,0.50
2022-09-02T01:56:35.135Z,0.50
2022-09-02T02:06:43.601Z,0.55
2022-09-02T02:11:49.271Z,0.60
2022-09-02T02:16:53.243Z,0.50
2022-09-02T02:21:57.657Z,0.50
2022-09-02T02:27:03.618Z,0.50
2022-09-02T02:32:08.268Z,0.50
2022-09-02T02:37:12.647Z,0.68
2022-09-02T02:42:17.851Z,0.50
2022-09-02T02:47:21.216Z,0.60
2022-09-02T02:52:25.178Z,0.60
2022-09-02T02:57:30.310Z,0.70
2022-09-02T03:02:34.414Z,0.50
2022-09-02T03:07:37.997Z,0.60
2022-09-02T03:12:44.105Z,0.57
2022-09-02T03:17:48.941Z,0.50
2022-09-02T03:22:57.477Z,0.60
2022-09-02T03:28:03.235Z,0.70
2022-09-02T03:33:07.211Z,0.55
2022-09-02T03:38:12.619Z,0.90
2022-09-02T03:43:19.030Z,0.70
2022-09-02T03:48:23.809Z,0.70
2022-09-02T03:53:27.467Z,0.50
2022-09-02T03:58:32.883Z,0.70
2022-09-02T04:03:36.344Z,0.70
2022-09-02T04:08:41.020Z,0.57
2022-09-02T04:18:50.807Z,0.60
2022-09-02T04:23:54.539Z,0.50
2022-09-02T04:29:00.707Z,0.55
2022-09-02T04:34:06.977Z,0.60
2022-09-02T04:39:10.451Z,0.60
2022-09-02T04:44:16.618Z,0.52
2022-09-02T04:49:20.165Z,0.68
2022-09-02T04:54:24.010Z,0.70
2022-09-02T04:59:29.325Z,0.57
2022-09-02T05:04:33.593Z,0.50
2022-09-02T05:09:37.079Z,0.90
2022-09-02T05:14:44.581Z,0.60
2022-09-02T05:19:48.172Z,0.50
2022-09-02T05:24:51.728Z,0.70
2022-09-02T05:29:59.634Z,0.80
2022-09-02T05:35:03.353Z,1.25
2022-09-02T05:40:08.603Z,0.70
2022-09-02T05:45:16.514Z,0.90
2022-09-02T05:50:20.989Z,0.50
2022-09-02T05:55:24.458Z,0.55
2022-09-02T06:00:30.483Z,0.50
2022-09-02T06:05:34.845Z,0.55
2022-09-02T06:10:42.718Z,0.77
2022-09-02T06:15:48.050Z,0.90
2022-09-02T06:20:52.298Z,0.50
2022-09-02T06:25:55.810Z,0.80
2022-09-02T06:31:01.328Z,0.60
2022-09-02T06:36:08.251Z,0.70
2022-09-02T06:41:12.353Z,0.60
2022-09-02T06:46:19.907Z,0.80
2022-09-02T06:51:26.074Z,0.50
2022-09-02T06:56:29.923Z,0.80
2022-09-02T07:01:35.655Z,0.80
2022-09-02T07:06:42.694Z,0.90
2022-09-02T07:11:48.246Z,0.88
2022-09-02T07:16:56.461Z,0.75
2022-09-02T07:22:00.016Z,0.80
2022-09-02T07:27:03.982Z,0.80
2022-09-02T07:32:09.124Z,1.20
2022-09-02T07:37:12.814Z,0.90
2022-09-02T07:42:17.010Z,0.80
2022-09-02T07:47:22.487Z,1.00
2022-09-02T07:52:26.280Z,0.60
2022-09-02T08:02:34.661Z,0.70
2022-09-02T08:07:38.713Z,0.80
2022-09-02T08:12:43.177Z,0.70
2022-09-02T08:17:48.488Z,0.80
2022-09-02T08:23:01.051Z,0.80
2022-09-02T08:28:15.553Z,0.80
2022-09-02T08:33:20.490Z,0.82
2022-09-02T08:38:24.342Z,0.60
2022-09-02T08:43:40.597Z,0.70
2022-09-02T08:48:53.172Z,0.70
2022-09-02T08:54:04.936Z,0.60
2022-09-02T08:59:09.857Z,0.70
2022-09-02T09:04:20.121Z,0.50
2022-09-02T09:09:30.894Z,0.60
2022-09-02T09:14:41.962Z,0.85
2022-09-02T09:19:50.753Z,0.50
2022-09-02T09:24:54.231Z,0.45
2022-09-02T09:29:58.059Z,0.63
2022-09-02T09:35:10.392Z,0.60
2022-09-02T09:40:30.897Z,0.60
2022-09-02T09:45:37.238Z,0.40
2022-09-02T09:50:42.129Z,0.70
2022-09-02T09:55:55.251Z,0.60
2022-09-02T10:01:00.951Z,0.60
2022-09-02T10:06:22.392Z,0.60
2022-09-02T10:11:28.491Z,0.50
2022-09-02T10:16:53.525Z,0.70
2022-09-02T10:22:59.254Z,0.60
2022-09-02T10:28:15.331Z,0.60
2022-09-02T10:33:30.992Z,0.60
2022-09-02T10:38:48.035Z,0.50
2022-09-02T10:44:10.558Z,0.65
2022-09-02T10:49:25.384Z,0.73
2022-09-02T10:54:45.326Z,0.50
2022-09-02T10:59:53.860Z,0.60
2022-09-02T11:05:01.828Z,0.70
2022-09-02T11:10:13.852Z,0.70
2022-09-02T11:15:22.564Z,0.65
2022-09-02T11:20:35.900Z,0.65
2022-09-02T11:25:46.201Z,0.70
2022-09-02T11:30:54.794Z,1.00
2022-09-02T11:36:00.013Z,0.50
2022-09-02T11:41:38.701Z,0.50
2022-09-02T11:46:59.650Z,0.50
2022-09-02T11:52:11.835Z,0.80
2022-09-02T11:57:23.533Z,0.75
2022-09-02T12:02:37.546Z,0.60
2022-09-02T12:07:49.847Z,0.68
2022-09-02T12:13:09.909Z,0.55
2022-09-02T12:18:29.207Z,0.70
2022-09-02T12:24:10.611Z,1.23
2022-09-02T12:29:34.274Z,0.70
2022-09-02T12:35:10.276Z,0.80
2022-09-02T12:40:21.123Z,0.80
2022-09-02T12:45:29.507Z,0.70
2022-09-02T12:50:52.040Z,0.70
2022-09-02T12:56:04.652Z,0.70
2022-09-02T13:01:18.189Z,0.60
2022-09-02T13:06:29.380Z,3.10
2022-09-02T13:12:14.142Z,0.57
2022-09-02T13:17:37.710Z,1.13
2022-09-02T13:23:10.909Z,1.00
2022-09-02T13:28:42.938Z,0.60
2022-09-02T13:33:48.221Z,0.60
2022-09-02T13:38:51.648Z,0.60
2022-09-02T13:44:07.417Z,0.60
2022-09-02T13:49:20.791Z,0.85
2022-09-02T13:54:37.725Z,0.75
2022-09-02T13:59:48.302Z,0.73
2022-09-02T14:04:56.616Z,0.85
2022-09-02T14:10:03.285Z,0.90
2022-09-02T14:15:10.016Z,0.65
2022-09-02T14:20:23.636Z,0.77
2022-09-02T14:25:29.177Z,0.90
2022-09-02T14:30:37.044Z,0.75
2022-09-02T14:35:42.046Z,0.70
2022-09-02T14:40:45.599Z,0.90
2022-09-02T14:45:51.506Z,0.70
2022-09-02T14:51:03.106Z,0.70
2022-09-02T14:56:07.714Z,0.70
2022-09-02T15:01:12.333Z,0.60
2022-09-02T15:06:19.049Z,1.30
2022-09-02T15:11:23.253Z,0.73
2022-09-02T15:16:27.251Z,0.80
2022-09-02T15:21:32.379Z,0.60
2022-09-02T15:26:36.141Z,0.70
2022-09-02T15:31:40.104Z,0.70
2022-09-02T15:36:45.849Z,0.70
2022-09-02T15:41:50.855Z,0.60
2022-09-02T15:46:55.474Z,0.90
2022-09-02T15:57:04.220Z,1.10
2022-09-02T16:02:07.952Z,1.00
2022-09-02T16:07:16.999Z,1.38
2022-09-02T16:12:21.138Z,1.38
2022-09-02T16:17:25.009Z,1.67
2022-09-02T16:22:30.251Z,1.90
2022-09-02T16:27:51.353Z,1.42
2022-09-02T16:32:54.948Z,1.20
2022-09-02T16:38:00.596Z,1.10
2022-09-02T16:43:05.170Z,1.17
2022-09-02T16:48:10.270Z,0.98
2022-09-02T16:53:16.751Z,1.10
2022-09-02T16:58:21.452Z,1.40
2022-09-02T17:03:25.904Z,1.40
2022-09-02T17:08:31.035Z,1.40
2022-09-02T17:13:34.550Z,1.20
2022-09-02T17:18:38.018Z,1.48
2022-09-02T17:23:43.630Z,1.20
2022-09-02T17:28:50.598Z,1.35
2022-09-02T17:33:56.301Z,1.00
2022-09-02T17:39:05.336Z,1.08
2022-09-02T17:44:09.977Z,1.38
2022-09-02T17:54:26.082Z,1.05
2022-09-02T17:59:39.444Z,1.95
2022-09-02T18:04:54.669Z,1.58
2022-09-02T18:09:59.651Z,1.55
2022-09-02T18:15:04.984Z,2.00
2022-09-02T18:20:13.688Z,1.90
2022-09-02T18:25:34.297Z,2.20
2022-09-02T18:30:46.341Z,2.20
2022-09-02T18:35:59.813Z,2.28
2022-09-02T18:41:18.045Z,2.20
2022-09-02T18:46:25.068Z,2.15
2022-09-02T18:51:35.860Z,1.63
2022-09-02T18:56:50.115Z,1.70
2022-09-02T19:01:55.781Z,1.33
2022-09-02T19:07:13.338Z,1.90
2022-09-02T19:12:19.574Z,1.30
2022-09-02T19:17:23.813Z,1.40
2022-09-02T19:22:29.091Z,1.50
2022-09-02T19:27:38.093Z,1.05
2022-09-02T19:32:44.865Z,1.20
2022-09-02T19:37:51.640Z,1.63
2022-09-02T19:42:56.632Z,0.90
2022-09-02T19:53:16.228Z,1.20
2022-09-02T19:58:21.319Z,1.00
2022-09-02T20:03:24.939Z,1.00
2022-09-02T20:08:31.286Z,0.98
2022-09-02T20:13:41.438Z,1.00
2022-09-02T20:18:47.027Z,0.90
2022-09-02T20:23:50.525Z,1.20
2022-09-02T20:29:10.552Z,1.30
2022-09-02T20:34:27.458Z,1.00
2022-09-02T20:39:44.335Z,0.98
2022-09-02T20:45:02.401Z,1.20
2022-09-02T20:50:23.337Z,1.15
2022-09-02T20:55:32.812Z,1.25
2022-09-02T21:00:38.396Z,1.00
2022-09-02T21:05:48.889Z,1.10
2022-09-02T21:10:54.343Z,1.38
2022-09-02T21:16:02.287Z,1.42
2022-09-02T21:21:19.285Z,1.27
2022-09-02T21:31:40.119Z,1.00
2022-09-02T21:36:44.718Z,1.00
2022-09-02T21:41:59.868Z,1.10
2022-09-02T21:47:16.375Z,1.40
2022-09-02T21:52:30.222Z,2.22
2022-09-02T21:57:46.551Z,2.50
2022-09-02T22:02:59.846Z,3.28
2022-09-02T22:08:12.251Z,3.65
2022-09-02T22:13:15.865Z,4.00
2022-09-02T22:18:31.146Z,4.90
2022-09-02T22:23:36.519Z,6.75
2022-09-02T22:28:45.628Z,8.75
2022-09-02T22:33:56.115Z,7.03
2022-09-02T22:39:01.383Z,6.18
2022-09-02T22:44:10.707Z,4.82
2022-09-02T22:49:37.597Z,4.70
2022-09-02T22:54:41.039Z,3.80
2022-09-02T23:00:00.137Z,4.25
2022-09-02T23:05:48.413Z,4.78
2022-09-02T23:10:57.234Z,4.78
2022-09-02T23:16:12.352Z,4.20
2022-09-02T23:21:29.284Z,4.20
2022-09-02T23:26:42.113Z,3.72
2022-09-02T23:32:10.870Z,3.30
2022-09-02T23:37:27.081Z,3.90
2022-09-02T23:42:30.887Z,2.88
2022-09-02T23:47:48.500Z,2.95
2022-09-02T23:52:58.971Z,2.72
2022-09-02T23:58:19.078Z,2.30
